KSET

Details ICAO KSET
Name St Charles Co Smartt
Region United States
Timezone America/Chicago (UTC-5.0)
Plans Departing 22
Arriving 6
Stats Elevation 436 ft / 133 m (AMSL)
Location 38.930320° -90.429536°
Runways 2
Magnetic Variation 1.429° W
Sunrise 2018-05-26 10:42:31 UTC / 2018-05-26 05:42:31 Local
Sunset 2018-05-27 01:17:57 UTC / 2018-05-26 20:17:57 Local
Advertisement - Login to hide

Runways

ID Width Length Bearing (true) Bearing (mag) Surface Threshold Offset Overrun Length
09 75 ft / 23 m 1,996 ft / 608 m 90.72° 92.15° Asphalt 0 ft / 0 m 0 ft / 0 m
18 75 ft / 23 m 3,807 ft / 1,161 m 180.69° 182.12° Asphalt 0 ft / 0 m 0 ft / 0 m
27 75 ft / 23 m 1,996 ft / 608 m 270.73° 272.16° Asphalt 0 ft / 0 m 0 ft / 0 m
36 75 ft / 23 m 3,807 ft / 1,161 m 0.69° 2.12° Asphalt 0 ft / 0 m 0 ft / 0 m

Map

Weather


0- 5 10 15 20 25 30 35+ Temperature / ° C

Clouds and Precipitation
Forecast for 2018-05-27 00:00 UTC. Updated 3 hours ago

Ground ~20,000 ft ~40,000 ft Winds

METAR

KSET 270154Z AUTO 24006KT 10SM FEW050 31/22 A2978 RMK AO2 SLP080 T03060217

TAF

Not found

Frequencies

Recorded 118.07 MHz ASOS
Clearance 121.60 MHz ST LOUIS CLNC DEL
Unicom 122.70 MHz CTAF
Approach 124.20 MHz ST LOUIS APP/DEP
Warning: Do not use this data for real-world aviation or navigation. No guarantee of current accuracy is given.